createdAt,value
2019-04-23T00:03:58.209Z,55.40
2019-04-23T00:06:42.951Z,55.30
2019-04-23T00:09:22.288Z,55.40
2019-04-23T00:11:46.210Z,55.30
2019-04-23T00:14:24.763Z,55.30
2019-04-23T00:16:49.233Z,55.30
2019-04-23T00:19:24.842Z,55.30
2019-04-23T00:22:10.344Z,55.30
2019-04-23T00:25:40.453Z,55.20
2019-04-23T00:27:35.295Z,55.20
2019-04-23T00:30:26.718Z,55.20
2019-04-23T00:32:42.655Z,55.20
2019-04-23T00:35:14.167Z,55.30
2019-04-23T00:37:49.571Z,55.10
2019-04-23T00:40:23.416Z,55.10
2019-04-23T00:42:59.537Z,55.10
2019-04-23T00:45:34.634Z,55.00
2019-04-23T00:48:09.226Z,55.10
2019-04-23T00:53:10.935Z,55.00
2019-04-23T00:58:25.034Z,54.90
2019-04-23T01:00:53.977Z,54.90
2019-04-23T01:03:21.443Z,54.90
2019-04-23T01:05:52.645Z,54.90
2019-04-23T01:08:30.198Z,54.90
2019-04-23T01:11:12.707Z,54.80
2019-04-23T01:16:15.048Z,54.70
2019-04-23T01:21:13.850Z,54.60
2019-04-23T01:24:02.084Z,55.20
2019-04-23T01:26:50.302Z,54.80
2019-04-23T01:29:30.544Z,54.70
2019-04-23T01:31:57.275Z,54.60
2019-04-23T01:34:49.951Z,54.60
2019-04-23T01:37:14.822Z,54.80
2019-04-23T01:39:40.132Z,54.60
2019-04-23T01:42:22.477Z,54.60
2019-04-23T01:44:54.135Z,54.50
2019-04-23T01:47:25.007Z,54.50
2019-04-23T01:50:06.391Z,54.40
2019-04-23T01:52:34.444Z,54.30
2019-04-23T01:55:01.779Z,54.30
2019-04-23T01:57:40.901Z,55.00
2019-04-23T02:00:08.545Z,55.10
2019-04-23T02:02:46.071Z,55.20
2019-04-23T02:05:24.387Z,55.00
2019-04-23T02:07:51.033Z,54.90
2019-04-23T02:10:38.046Z,54.80
2019-04-23T02:15:34.940Z,54.70
2019-04-23T02:18:05.470Z,54.70
2019-04-23T02:20:43.018Z,54.50
2019-04-23T02:28:25.780Z,54.50
2019-04-23T02:31:25.249Z,54.60
2019-04-23T02:36:07.027Z,54.60
2019-04-23T02:43:59.118Z,54.70
2019-04-23T02:46:24.454Z,54.80
2019-04-23T02:51:37.180Z,54.90
2019-04-23T02:54:16.131Z,54.90
2019-04-23T02:56:50.821Z,54.90
2019-04-23T03:01:57.532Z,55.00
2019-04-23T03:04:32.829Z,55.00
2019-04-23T03:06:55.982Z,55.00
2019-04-23T03:12:06.374Z,55.20
2019-04-23T03:17:30.287Z,55.20
2019-04-23T03:20:10.653Z,55.30
2019-04-23T03:22:45.971Z,55.20
2019-04-23T03:25:31.967Z,56.00
2019-04-23T03:28:08.581Z,55.40
2019-04-23T03:38:41.748Z,55.40
2019-04-23T03:41:15.035Z,55.40
2019-04-23T03:43:39.322Z,55.40
2019-04-23T03:46:16.174Z,55.20
2019-04-23T03:48:52.641Z,55.30
2019-04-23T03:51:16.280Z,55.30
2019-04-23T04:01:29.190Z,55.00
2019-04-23T04:04:22.643Z,54.90
2019-04-23T04:06:43.741Z,54.60
2019-04-23T04:11:54.884Z,53.90
2019-04-23T04:14:36.326Z,53.70
2019-04-23T04:16:56.150Z,53.40
2019-04-23T04:27:06.078Z,49.10
2019-04-23T04:29:52.311Z,48.60
2019-04-23T04:32:03.612Z,48.30
2019-04-23T04:35:11.227Z,47.40
2019-04-23T04:37:36.079Z,46.80
2019-04-23T04:40:11.023Z,46.80
2019-04-23T04:42:24.848Z,45.60
2019-04-23T04:50:15.394Z,43.80
2019-04-23T04:55:42.226Z,43.20
2019-04-23T04:58:07.462Z,43.30
2019-04-23T05:00:54.292Z,42.80
2019-04-23T06:28:46.673Z,31.00
2019-04-23T06:43:37.196Z,30.20
2019-04-23T06:46:09.984Z,29.90
2019-04-23T06:48:35.598Z,28.90
2019-04-23T06:51:14.591Z,28.90
2019-04-23T06:53:45.071Z,28.80
2019-04-23T06:56:19.142Z,28.70
2019-04-23T06:58:50.440Z,28.30
2019-04-23T07:01:18.689Z,28.40
2019-04-23T07:07:29.730Z,27.30
2019-04-23T07:09:34.280Z,26.70
2019-04-23T07:12:08.556Z,27.30
2019-04-23T07:14:51.408Z,27.00
2019-04-23T07:17:09.203Z,25.00
2019-04-23T07:19:48.388Z,25.30
2019-04-23T07:25:34.325Z,24.70
2019-04-23T07:40:19.699Z,23.90
2019-04-23T07:56:53.844Z,23.20
2019-04-23T07:59:27.772Z,23.10
2019-04-23T09:43:03.788Z,24.10
2019-04-23T09:46:15.061Z,24.30
2019-04-23T09:59:02.985Z,23.90
2019-04-23T10:01:59.447Z,24.20
2019-04-23T10:07:27.107Z,24.90
2019-04-23T10:10:51.268Z,25.10
2019-04-23T10:13:26.146Z,25.00
2019-04-23T10:16:53.302Z,25.10
2019-04-23T10:19:42.818Z,25.10
2019-04-23T10:22:56.857Z,24.80
2019-04-23T10:25:34.143Z,24.70
2019-04-23T10:29:07.721Z,24.90
2019-04-23T10:31:40.013Z,24.90
2019-04-23T10:34:27.413Z,25.00
2019-04-23T10:37:09.561Z,24.90
2019-04-23T10:39:50.309Z,24.90
2019-04-23T10:42:25.422Z,25.00
2019-04-23T10:45:27.319Z,25.10
2019-04-23T10:48:54.816Z,25.30
2019-04-23T10:51:33.997Z,25.80
2019-04-23T10:54:37.963Z,26.20
2019-04-23T10:57:31.743Z,26.20
2019-04-23T11:01:06.313Z,26.60
2019-04-23T11:03:53.941Z,26.80
2019-04-23T11:06:37.243Z,26.70
2019-04-23T11:09:48.664Z,26.80
2019-04-23T11:13:19.360Z,26.80
2019-04-23T11:18:34.157Z,26.60
2019-04-23T11:24:45.955Z,26.90
2019-04-23T11:27:25.978Z,26.90
2019-04-23T11:33:39.531Z,27.00
2019-04-23T11:39:28.871Z,27.40
2019-04-23T11:42:16.714Z,27.40
2019-04-23T11:45:32.588Z,27.60
2019-04-23T11:48:51.186Z,27.60
2019-04-23T11:57:48.742Z,27.90
2019-04-23T12:00:39.028Z,28.00
2019-04-23T12:03:07.624Z,28.00
2019-04-23T12:06:12.383Z,28.20
2019-04-23T12:09:02.911Z,28.30
2019-04-23T12:22:22.273Z,28.50
2019-04-23T12:25:07.715Z,28.60
2019-04-23T12:27:30.738Z,28.70
2019-04-23T12:30:01.298Z,28.70
2019-04-23T12:38:13.904Z,29.00
2019-04-23T12:40:52.673Z,29.30
2019-04-23T12:43:19.167Z,29.40
2019-04-23T12:45:46.938Z,29.40
2019-04-23T12:51:17.116Z,29.10
2019-04-23T12:53:39.836Z,28.90
2019-04-23T12:56:08.969Z,29.00
2019-04-23T12:58:27.874Z,29.00
2019-04-23T13:01:19.984Z,29.10
2019-04-23T13:03:45.806Z,29.20
2019-04-23T13:06:17.350Z,29.20
2019-04-23T13:11:30.059Z,29.20
2019-04-23T13:14:19.487Z,29.30
2019-04-23T13:16:54.049Z,29.40
2019-04-23T13:19:33.951Z,29.40
2019-04-23T13:22:00.337Z,29.50
2019-04-23T13:24:48.949Z,29.60
2019-04-23T13:27:29.357Z,29.60
2019-04-23T13:30:02.054Z,29.60
2019-04-23T13:32:39.066Z,29.50
2019-04-23T13:35:22.120Z,29.50
2019-04-23T13:37:44.567Z,29.50
2019-04-23T13:40:09.542Z,29.60
2019-04-23T13:42:45.067Z,29.60
2019-04-23T13:45:45.948Z,29.60
2019-04-23T13:48:01.181Z,29.70
2019-04-23T13:50:38.536Z,29.80
2019-04-23T13:53:25.364Z,29.60
2019-04-23T13:55:26.660Z,29.60
2019-04-23T14:01:01.162Z,29.00
2019-04-23T14:03:21.676Z,28.90
2019-04-23T14:11:35.920Z,28.90
2019-04-23T14:14:08.539Z,28.70
2019-04-23T14:16:48.507Z,28.50
2019-04-23T14:21:39.269Z,28.40
2019-04-23T14:24:19.858Z,28.30
2019-04-23T14:26:50.862Z,28.30
2019-04-23T14:29:26.431Z,28.40
2019-04-23T14:31:53.729Z,28.30
2019-04-23T14:34:29.165Z,28.60
2019-04-23T14:39:36.696Z,28.30
2019-04-23T14:42:36.434Z,28.30
2019-04-23T14:44:49.752Z,28.50
2019-04-23T14:47:28.196Z,28.40
2019-04-23T14:50:17.360Z,28.50
2019-04-23T14:55:40.176Z,28.70
2019-04-23T14:57:52.582Z,28.60
2019-04-23T15:00:18.221Z,28.50
2019-04-23T15:05:17.374Z,28.30
2019-04-23T15:07:51.287Z,28.30
2019-04-23T15:10:26.405Z,28.40
2019-04-23T15:13:01.863Z,28.40
2019-04-23T15:15:39.166Z,28.50
2019-04-23T15:18:14.102Z,28.40
2019-04-23T15:20:53.351Z,28.30
2019-04-23T15:26:45.243Z,28.40
2019-04-23T15:28:08.860Z,28.50
2019-04-23T15:31:10.018Z,28.40
2019-04-23T15:33:45.120Z,28.60
2019-04-23T15:41:30.700Z,28.30
2019-04-23T15:44:01.547Z,28.20
2019-04-23T15:46:35.457Z,28.10
2019-04-23T15:49:09.942Z,28.10
2019-04-23T15:51:35.208Z,28.10
2019-04-23T15:56:44.527Z,28.10
2019-04-23T16:01:37.661Z,28.30
2019-04-23T16:03:49.648Z,28.40
2019-04-23T16:06:24.867Z,28.40
2019-04-23T16:09:39.867Z,28.50
2019-04-23T16:22:31.043Z,28.40
2019-04-23T16:25:17.873Z,28.30
2019-04-23T16:27:45.751Z,28.40
2019-04-23T16:30:19.137Z,28.40
2019-04-23T16:40:47.719Z,28.10
2019-04-23T16:43:28.339Z,27.90
2019-04-23T16:46:09.712Z,27.80
2019-04-23T16:48:57.890Z,27.70
2019-04-23T16:51:16.441Z,27.70
2019-04-23T16:53:37.445Z,27.60
2019-04-23T16:56:18.592Z,27.70
2019-04-23T16:58:55.129Z,27.70
2019-04-23T17:01:22.858Z,27.60
2019-04-23T17:04:03.589Z,27.60
2019-04-23T17:06:29.376Z,27.70
2019-04-23T17:11:48.359Z,27.60
2019-04-23T17:14:17.338Z,27.50
2019-04-23T17:21:54.932Z,27.20
2019-04-23T17:24:23.305Z,27.20
2019-04-23T17:27:01.493Z,27.30
2019-04-23T17:29:35.248Z,27.40
2019-04-23T17:32:10.036Z,27.60
2019-04-23T17:34:58.536Z,27.70
2019-04-23T17:37:32.538Z,27.80
2019-04-23T17:40:17.717Z,27.90
2019-04-23T17:43:01.511Z,28.10
2019-04-23T17:48:22.037Z,28.40
2019-04-23T17:53:29.897Z,28.50
2019-04-23T18:09:05.949Z,29.10
2019-04-23T18:14:03.877Z,29.10
2019-04-23T18:16:41.179Z,29.20
2019-04-23T18:21:52.023Z,29.40
2019-04-23T18:24:41.470Z,29.40
2019-04-23T18:29:53.624Z,29.50
2019-04-23T18:32:46.492Z,29.50
2019-04-23T18:35:20.226Z,29.50
2019-04-23T18:37:46.443Z,29.50
2019-04-23T18:40:13.797Z,29.50
2019-04-23T18:45:33.925Z,29.20
2019-04-23T18:48:26.228Z,29.30
2019-04-23T18:53:37.046Z,29.40
2019-04-23T18:58:35.277Z,29.50
2019-04-23T19:04:07.198Z,29.20
2019-04-23T19:06:34.614Z,29.10
2019-04-23T19:09:50.745Z,28.90
2019-04-23T19:12:31.407Z,28.70
2019-04-23T19:15:06.124Z,28.60
2019-04-23T19:20:17.972Z,28.20
2019-04-23T19:22:46.916Z,28.10
2019-04-23T19:25:14.493Z,27.90
2019-04-23T19:27:47.180Z,28.10
2019-04-23T19:30:43.129Z,27.80
2019-04-23T19:36:05.006Z,27.90
2019-04-23T19:38:23.893Z,27.90
2019-04-23T19:45:59.914Z,27.70
2019-04-23T19:54:06.074Z,28.00
2019-04-23T19:58:56.668Z,28.10
2019-04-23T20:01:21.029Z,28.10
2019-04-23T20:11:37.596Z,28.10
2019-04-23T20:14:21.354Z,28.10
2019-04-23T20:16:48.988Z,28.10
2019-04-23T20:19:19.009Z,28.20
2019-04-23T20:22:06.226Z,28.30
2019-04-23T20:27:06.152Z,28.40
2019-04-23T20:30:15.713Z,28.40
2019-04-23T20:32:06.076Z,28.30
2019-04-23T20:38:08.907Z,28.60
2019-04-23T20:40:17.846Z,28.70
2019-04-23T20:42:52.589Z,28.60
2019-04-23T20:45:20.745Z,28.70
2019-04-23T20:50:31.502Z,28.80
2019-04-23T20:52:57.550Z,28.80
2019-04-23T20:55:58.383Z,28.90
2019-04-23T20:58:20.919Z,28.90
2019-04-23T21:01:09.662Z,28.90
2019-04-23T21:06:10.232Z,28.90
2019-04-23T21:09:04.482Z,28.80
2019-04-23T21:11:13.821Z,28.70
2019-04-23T21:16:34.364Z,28.80
2019-04-23T21:19:03.410Z,28.80
2019-04-23T21:21:33.546Z,28.80
2019-04-23T21:24:01.318Z,28.80
2019-04-23T21:26:41.995Z,28.90
2019-04-23T21:29:04.003Z,28.90
2019-04-23T21:31:48.453Z,29.00
2019-04-23T21:34:32.025Z,29.00
2019-04-23T21:37:04.424Z,29.00
2019-04-23T21:40:04.746Z,29.10
2019-04-23T21:42:58.957Z,29.20
2019-04-23T21:45:26.023Z,29.30
2019-04-23T21:50:43.847Z,29.50
2019-04-23T21:53:07.162Z,29.60
2019-04-23T21:55:47.242Z,29.50
2019-04-23T21:58:17.297Z,29.60
2019-04-23T22:03:43.042Z,29.70
2019-04-23T22:06:10.129Z,29.80
2019-04-23T22:08:38.651Z,30.00
2019-04-23T22:11:33.935Z,29.90
2019-04-23T22:13:51.640Z,30.00
2019-04-23T22:16:14.591Z,29.90
2019-04-23T22:19:09.159Z,30.00
2019-04-23T22:24:54.598Z,30.30
2019-04-23T22:26:38.224Z,30.30
2019-04-23T22:29:14.360Z,30.40
2019-04-23T22:31:43.015Z,30.60
2019-04-23T22:34:16.765Z,30.70
2019-04-23T22:36:50.722Z,30.80
2019-04-23T22:41:58.257Z,31.00
2019-04-23T22:44:24.581Z,31.00
2019-04-23T22:49:41.811Z,31.20
2019-04-23T22:54:39.796Z,31.30
2019-04-23T22:57:06.398Z,31.50
2019-04-23T22:59:54.357Z,31.40
2019-04-23T23:03:00.898Z,31.70
2019-04-23T23:07:56.457Z,31.80
2019-04-23T23:10:22.246Z,32.00
2019-04-23T23:18:08.121Z,32.30
2019-04-23T23:20:36.083Z,32.40
2019-04-23T23:23:16.016Z,32.40
2019-04-23T23:25:39.267Z,32.40
2019-04-23T23:31:00.286Z,32.60
2019-04-23T23:33:24.687Z,32.70
2019-04-23T23:36:03.602Z,32.90
2019-04-23T23:38:33.562Z,33.00
2019-04-23T23:41:15.129Z,33.00
2019-04-23T23:43:54.435Z,33.10
2019-04-23T23:46:24.439Z,33.20
2019-04-23T23:48:48.495Z,33.30
2019-04-23T23:51:29.459Z,33.40
2019-04-23T23:56:30.209Z,33.60
